sensor_id;sensor_type;location;lat;lon;timestamp;P1;durP1;ratioP1;P2;durP2;ratioP2
22622;SDS011;11478;51.094;7.030;2023-09-30T00:01:02;16.83;;;4.57;;
22622;SDS011;11478;51.094;7.030;2023-09-30T00:03:34;21.67;;;5.07;;
22622;SDS011;11478;51.094;7.030;2023-09-30T00:06:00;13.63;;;4.68;;
22622;SDS011;11478;51.094;7.030;2023-09-30T00:11:21;11.95;;;4.40;;
22622;SDS011;11478;51.094;7.030;2023-09-30T00:13:47;16.23;;;4.65;;
22622;SDS011;11478;51.094;7.030;2023-09-30T00:16:15;16.77;;;5.00;;
22622;SDS011;11478;51.094;7.030;2023-09-30T00:18:43;10.23;;;4.20;;
22622;SDS011;11478;51.094;7.030;2023-09-30T00:23:55;11.82;;;4.43;;
22622;SDS011;11478;51.094;7.030;2023-09-30T00:28:52;10.48;;;4.10;;
22622;SDS011;11478;51.094;7.030;2023-09-30T00:31:28;16.20;;;4.85;;
22622;SDS011;11478;51.094;7.030;2023-09-30T00:33:54;10.32;;;4.28;;
22622;SDS011;11478;51.094;7.030;2023-09-30T00:38:52;15.98;;;4.70;;
22622;SDS011;11478;51.094;7.030;2023-09-30T00:41:18;8.07;;;4.55;;
22622;SDS011;11478;51.094;7.030;2023-09-30T00:46:33;16.48;;;5.00;;
22622;SDS011;11478;51.094;7.030;2023-09-30T00:52:26;12.07;;;5.38;;
22622;SDS011;11478;51.094;7.030;2023-09-30T00:54:59;16.08;;;5.15;;
22622;SDS011;11478;51.094;7.030;2023-09-30T00:57:25;17.02;;;5.50;;
22622;SDS011;11478;51.094;7.030;2023-09-30T00:59:53;15.02;;;5.10;;
22622;SDS011;11478;51.094;7.030;2023-09-30T01:02:19;11.60;;;5.15;;
22622;SDS011;11478;51.094;7.030;2023-09-30T01:04:48;16.00;;;5.50;;
22622;SDS011;11478;51.094;7.030;2023-09-30T01:07:14;15.82;;;5.10;;
22622;SDS011;11478;51.094;7.030;2023-09-30T01:09:40;9.82;;;4.63;;
22622;SDS011;11478;51.094;7.030;2023-09-30T01:12:09;13.80;;;5.63;;
22622;SDS011;11478;51.094;7.030;2023-09-30T01:17:33;11.48;;;4.75;;
22622;SDS011;11478;51.094;7.030;2023-09-30T01:19:58;9.57;;;4.25;;
22622;SDS011;11478;51.094;7.030;2023-09-30T01:25:24;12.40;;;5.28;;
22622;SDS011;11478;51.094;7.030;2023-09-30T01:31:12;12.68;;;4.70;;
22622;SDS011;11478;51.094;7.030;2023-09-30T01:33:39;12.90;;;4.95;;
22622;SDS011;11478;51.094;7.030;2023-09-30T01:36:19;12.35;;;5.43;;
22622;SDS011;11478;51.094;7.030;2023-09-30T01:38:44;12.02;;;4.90;;
22622;SDS011;11478;51.094;7.030;2023-09-30T01:44:28;20.45;;;5.80;;
22622;SDS011;11478;51.094;7.030;2023-09-30T01:46:55;11.35;;;4.68;;
22622;SDS011;11478;51.094;7.030;2023-09-30T01:49:23;14.13;;;4.65;;
22622;SDS011;11478;51.094;7.030;2023-09-30T01:55:11;12.77;;;4.82;;
22622;SDS011;11478;51.094;7.030;2023-09-30T02:03:46;12.07;;;5.15;;
22622;SDS011;11478;51.094;7.030;2023-09-30T02:06:12;11.98;;;5.15;;
22622;SDS011;11478;51.094;7.030;2023-09-30T02:08:44;15.43;;;5.10;;
22622;SDS011;11478;51.094;7.030;2023-09-30T02:11:11;13.20;;;4.50;;
22622;SDS011;11478;51.094;7.030;2023-09-30T02:16:27;16.35;;;5.50;;
22622;SDS011;11478;51.094;7.030;2023-09-30T02:22:12;11.43;;;5.05;;
22622;SDS011;11478;51.094;7.030;2023-09-30T02:27:23;12.55;;;5.15;;
22622;SDS011;11478;51.094;7.030;2023-09-30T02:29:51;12.52;;;5.28;;
22622;SDS011;11478;51.094;7.030;2023-09-30T02:32:17;10.32;;;4.45;;
22622;SDS011;11478;51.094;7.030;2023-09-30T02:34:45;16.05;;;5.00;;
22622;SDS011;11478;51.094;7.030;2023-09-30T02:37:12;9.43;;;4.30;;
22622;SDS011;11478;51.094;7.030;2023-09-30T02:39:38;12.77;;;5.07;;
22622;SDS011;11478;51.094;7.030;2023-09-30T02:42:04;12.38;;;5.28;;
22622;SDS011;11478;51.094;7.030;2023-09-30T02:46:59;15.35;;;5.85;;
22622;SDS011;11478;51.094;7.030;2023-09-30T02:52:15;18.38;;;5.80;;
22622;SDS011;11478;51.094;7.030;2023-09-30T02:57:31;13.73;;;5.15;;
22622;SDS011;11478;51.094;7.030;2023-09-30T03:02:48;15.30;;;5.78;;
22622;SDS011;11478;51.094;7.030;2023-09-30T03:05:18;20.20;;;5.60;;
22622;SDS011;11478;51.094;7.030;2023-09-30T03:07:45;51.45;;;13.75;;
22622;SDS011;11478;51.094;7.030;2023-09-30T03:10:15;22.77;;;11.73;;
22622;SDS011;11478;51.094;7.030;2023-09-30T03:12:51;16.03;;;6.23;;
22622;SDS011;11478;51.094;7.030;2023-09-30T03:15:21;13.88;;;5.20;;
22622;SDS011;11478;51.094;7.030;2023-09-30T03:17:50;11.05;;;5.00;;
22622;SDS011;11478;51.094;7.030;2023-09-30T03:20:16;12.10;;;5.10;;
22622;SDS011;11478;51.094;7.030;2023-09-30T03:22:54;11.93;;;5.13;;
22622;SDS011;11478;51.094;7.030;2023-09-30T03:25:21;10.25;;;5.28;;
22622;SDS011;11478;51.094;7.030;2023-09-30T03:27:48;12.80;;;4.53;;
22622;SDS011;11478;51.094;7.030;2023-09-30T03:30:15;9.15;;;5.00;;
22622;SDS011;11478;51.094;7.030;2023-09-30T03:32:44;16.67;;;5.28;;
22622;SDS011;11478;51.094;7.030;2023-09-30T03:35:11;16.15;;;5.88;;
22622;SDS011;11478;51.094;7.030;2023-09-30T03:37:43;13.75;;;5.28;;
22622;SDS011;11478;51.094;7.030;2023-09-30T03:40:18;13.30;;;5.32;;
22622;SDS011;11478;51.094;7.030;2023-09-30T03:48:01;13.32;;;5.32;;
22622;SDS011;11478;51.094;7.030;2023-09-30T03:50:37;14.75;;;5.78;;
22622;SDS011;11478;51.094;7.030;2023-09-30T03:53:03;12.57;;;5.85;;
22622;SDS011;11478;51.094;7.030;2023-09-30T04:05:28;15.95;;;5.60;;
22622;SDS011;11478;51.094;7.030;2023-09-30T04:07:56;18.38;;;5.32;;
22622;SDS011;11478;51.094;7.030;2023-09-30T04:10:22;15.88;;;5.97;;
22622;SDS011;11478;51.094;7.030;2023-09-30T04:12:50;18.33;;;5.28;;
22622;SDS011;11478;51.094;7.030;2023-09-30T04:15:17;12.35;;;5.50;;
22622;SDS011;11478;51.094;7.030;2023-09-30T04:17:43;31.92;;;10.40;;
22622;SDS011;11478;51.094;7.030;2023-09-30T04:20:17;14.35;;;5.80;;
22622;SDS011;11478;51.094;7.030;2023-09-30T04:22:48;19.40;;;5.53;;
22622;SDS011;11478;51.094;7.030;2023-09-30T04:28:35;16.10;;;5.00;;
22622;SDS011;11478;51.094;7.030;2023-09-30T04:31:05;12.85;;;5.28;;
22622;SDS011;11478;51.094;7.030;2023-09-30T04:33:32;11.77;;;5.53;;
22622;SDS011;11478;51.094;7.030;2023-09-30T04:36:01;15.82;;;5.45;;
22622;SDS011;11478;51.094;7.030;2023-09-30T04:38:27;9.75;;;5.32;;
22622;SDS011;11478;51.094;7.030;2023-09-30T04:40:53;12.85;;;5.50;;
22622;SDS011;11478;51.094;7.030;2023-09-30T04:43:19;13.13;;;5.25;;
22622;SDS011;11478;51.094;7.030;2023-09-30T04:48:17;17.20;;;6.03;;
22622;SDS011;11478;51.094;7.030;2023-09-30T04:50:43;10.65;;;6.10;;
22622;SDS011;11478;51.094;7.030;2023-09-30T04:53:10;14.38;;;5.55;;
22622;SDS011;11478;51.094;7.030;2023-09-30T04:55:38;12.15;;;5.35;;
22622;SDS011;11478;51.094;7.030;2023-09-30T04:58:04;12.57;;;5.10;;
22622;SDS011;11478;51.094;7.030;2023-09-30T05:00:32;16.38;;;6.25;;
22622;SDS011;11478;51.094;7.030;2023-09-30T05:02:59;12.38;;;4.82;;
22622;SDS011;11478;51.094;7.030;2023-09-30T05:05:27;11.27;;;5.20;;
22622;SDS011;11478;51.094;7.030;2023-09-30T05:07:53;11.45;;;4.90;;
22622;SDS011;11478;51.094;7.030;2023-09-30T05:10:20;13.25;;;5.00;;
22622;SDS011;11478;51.094;7.030;2023-09-30T05:12:46;10.63;;;4.85;;
22622;SDS011;11478;51.094;7.030;2023-09-30T05:15:26;12.27;;;5.15;;
22622;SDS011;11478;51.094;7.030;2023-09-30T05:18:05;14.75;;;5.47;;
22622;SDS011;11478;51.094;7.030;2023-09-30T05:20:33;14.32;;;5.00;;
22622;SDS011;11478;51.094;7.030;2023-09-30T05:23:04;12.25;;;5.25;;
22622;SDS011;11478;51.094;7.030;2023-09-30T05:25:32;12.65;;;5.93;;
22622;SDS011;11478;51.094;7.030;2023-09-30T05:27:58;11.85;;;5.57;;
22622;SDS011;11478;51.094;7.030;2023-09-30T05:30:28;13.10;;;5.50;;
22622;SDS011;11478;51.094;7.030;2023-09-30T05:32:54;15.48;;;5.28;;
22622;SDS011;11478;51.094;7.030;2023-09-30T05:35:22;15.35;;;6.05;;
22622;SDS011;11478;51.094;7.030;2023-09-30T05:37:49;17.92;;;6.50;;
22622;SDS011;11478;51.094;7.030;2023-09-30T05:40:19;16.35;;;7.22;;
22622;SDS011;11478;51.094;7.030;2023-09-30T05:42:55;97.65;;;26.63;;
22622;SDS011;11478;51.094;7.030;2023-09-30T05:45:30;15.07;;;7.78;;
22622;SDS011;11478;51.094;7.030;2023-09-30T05:48:01;16.05;;;6.85;;
22622;SDS011;11478;51.094;7.030;2023-09-30T05:50:31;11.75;;;6.43;;
22622;SDS011;11478;51.094;7.030;2023-09-30T05:52:59;16.98;;;7.75;;
22622;SDS011;11478;51.094;7.030;2023-09-30T05:55:25;14.60;;;7.90;;
22622;SDS011;11478;51.094;7.030;2023-09-30T05:57:51;19.20;;;8.40;;
22622;SDS011;11478;51.094;7.030;2023-09-30T06:00:19;14.80;;;7.30;;
22622;SDS011;11478;51.094;7.030;2023-09-30T06:02:47;15.57;;;8.00;;
22622;SDS011;11478;51.094;7.030;2023-09-30T06:05:18;18.55;;;8.77;;
22622;SDS011;11478;51.094;7.030;2023-09-30T06:07:47;19.58;;;7.80;;
22622;SDS011;11478;51.094;7.030;2023-09-30T06:10:14;15.13;;;7.60;;
22622;SDS011;11478;51.094;7.030;2023-09-30T06:12:41;13.18;;;7.47;;
22622;SDS011;11478;51.094;7.030;2023-09-30T06:15:07;22.20;;;10.05;;
22622;SDS011;11478;51.094;7.030;2023-09-30T06:17:33;22.58;;;9.57;;
22622;SDS011;11478;51.094;7.030;2023-09-30T06:20:05;16.40;;;8.48;;
22622;SDS011;11478;51.094;7.030;2023-09-30T06:22:41;14.50;;;7.95;;
22622;SDS011;11478;51.094;7.030;2023-09-30T06:25:12;15.55;;;8.50;;
22622;SDS011;11478;51.094;7.030;2023-09-30T06:27:45;20.30;;;9.30;;
22622;SDS011;11478;51.094;7.030;2023-09-30T06:30:14;17.77;;;8.88;;
22622;SDS011;11478;51.094;7.030;2023-09-30T06:32:41;17.13;;;8.57;;
22622;SDS011;11478;51.094;7.030;2023-09-30T06:35:08;16.23;;;9.27;;
22622;SDS011;11478;51.094;7.030;2023-09-30T06:37:41;15.07;;;8.82;;
22622;SDS011;11478;51.094;7.030;2023-09-30T06:40:09;18.98;;;10.57;;
22622;SDS011;11478;51.094;7.030;2023-09-30T06:42:37;19.08;;;10.48;;
22622;SDS011;11478;51.094;7.030;2023-09-30T06:45:13;20.42;;;11.48;;
22622;SDS011;11478;51.094;7.030;2023-09-30T06:47:39;17.15;;;9.82;;
22622;SDS011;11478;51.094;7.030;2023-09-30T06:50:09;21.40;;;11.35;;
22622;SDS011;11478;51.094;7.030;2023-09-30T06:52:40;19.48;;;10.55;;
22622;SDS011;11478;51.094;7.030;2023-09-30T06:55:07;18.15;;;10.43;;
22622;SDS011;11478;51.094;7.030;2023-09-30T07:00:06;22.13;;;11.80;;
22622;SDS011;11478;51.094;7.030;2023-09-30T07:02:40;20.95;;;12.13;;
22622;SDS011;11478;51.094;7.030;2023-09-30T07:05:10;23.27;;;13.10;;
22622;SDS011;11478;51.094;7.030;2023-09-30T07:07:37;21.08;;;12.57;;
22622;SDS011;11478;51.094;7.030;2023-09-30T07:10:07;21.65;;;12.25;;
22622;SDS011;11478;51.094;7.030;2023-09-30T07:12:33;22.05;;;12.38;;
22622;SDS011;11478;51.094;7.030;2023-09-30T07:15:05;20.50;;;11.70;;
22622;SDS011;11478;51.094;7.030;2023-09-30T07:17:35;24.70;;;11.90;;
22622;SDS011;11478;51.094;7.030;2023-09-30T07:20:02;15.50;;;9.60;;
22622;SDS011;11478;51.094;7.030;2023-09-30T07:22:30;19.00;;;11.23;;
22622;SDS011;11478;51.094;7.030;2023-09-30T07:24:56;23.40;;;11.38;;
22622;SDS011;11478;51.094;7.030;2023-09-30T07:27:25;17.73;;;11.13;;
22622;SDS011;11478;51.094;7.030;2023-09-30T07:29:51;19.38;;;12.07;;
22622;SDS011;11478;51.094;7.030;2023-09-30T07:32:19;18.15;;;10.98;;
22622;SDS011;11478;51.094;7.030;2023-09-30T07:34:48;19.83;;;11.57;;
22622;SDS011;11478;51.094;7.030;2023-09-30T07:37:17;20.55;;;11.70;;
22622;SDS011;11478;51.094;7.030;2023-09-30T07:39:43;20.02;;;11.43;;
22622;SDS011;11478;51.094;7.030;2023-09-30T07:42:11;17.80;;;11.07;;
22622;SDS011;11478;51.094;7.030;2023-09-30T07:44:37;16.00;;;10.98;;
22622;SDS011;11478;51.094;7.030;2023-09-30T07:47:16;20.25;;;10.77;;
22622;SDS011;11478;51.094;7.030;2023-09-30T07:49:43;14.85;;;9.85;;
22622;SDS011;11478;51.094;7.030;2023-09-30T07:52:13;19.42;;;11.00;;
22622;SDS011;11478;51.094;7.030;2023-09-30T07:54:40;18.63;;;11.70;;
22622;SDS011;11478;51.094;7.030;2023-09-30T07:57:09;16.73;;;10.88;;
22622;SDS011;11478;51.094;7.030;2023-09-30T07:59:39;24.20;;;12.65;;
22622;SDS011;11478;51.094;7.030;2023-09-30T08:02:13;19.90;;;11.82;;
22622;SDS011;11478;51.094;7.030;2023-09-30T08:04:51;17.00;;;10.68;;
22622;SDS011;11478;51.094;7.030;2023-09-30T08:07:17;18.25;;;10.95;;
22622;SDS011;11478;51.094;7.030;2023-09-30T08:09:44;15.52;;;9.73;;
22622;SDS011;11478;51.094;7.030;2023-09-30T08:12:10;15.93;;;10.23;;
22622;SDS011;11478;51.094;7.030;2023-09-30T08:14:36;24.25;;;11.38;;
22622;SDS011;11478;51.094;7.030;2023-09-30T08:17:04;22.70;;;13.38;;
22622;SDS011;11478;51.094;7.030;2023-09-30T08:19:30;20.40;;;11.00;;
22622;SDS011;11478;51.094;7.030;2023-09-30T08:21:56;21.00;;;13.32;;
22622;SDS011;11478;51.094;7.030;2023-09-30T08:24:22;20.02;;;11.07;;
22622;SDS011;11478;51.094;7.030;2023-09-30T08:26:55;21.02;;;11.18;;
22622;SDS011;11478;51.094;7.030;2023-09-30T08:29:21;18.35;;;11.70;;
22622;SDS011;11478;51.094;7.030;2023-09-30T08:31:48;24.42;;;12.55;;
22622;SDS011;11478;51.094;7.030;2023-09-30T08:34:15;16.15;;;11.32;;
22622;SDS011;11478;51.094;7.030;2023-09-30T08:36:47;23.98;;;13.63;;
22622;SDS011;11478;51.094;7.030;2023-09-30T08:39:13;23.65;;;13.50;;
22622;SDS011;11478;51.094;7.030;2023-09-30T08:41:42;23.25;;;12.65;;
22622;SDS011;11478;51.094;7.030;2023-09-30T08:44:09;27.17;;;14.48;;
22622;SDS011;11478;51.094;7.030;2023-09-30T08:46:37;21.85;;;12.63;;
22622;SDS011;11478;51.094;7.030;2023-09-30T08:49:06;24.92;;;12.80;;
22622;SDS011;11478;51.094;7.030;2023-09-30T08:51:33;23.08;;;12.77;;
22622;SDS011;11478;51.094;7.030;2023-09-30T08:54:00;21.33;;;13.02;;
22622;SDS011;11478;51.094;7.030;2023-09-30T08:56:32;24.30;;;12.70;;
22622;SDS011;11478;51.094;7.030;2023-09-30T08:59:00;21.00;;;12.25;;
22622;SDS011;11478;51.094;7.030;2023-09-30T09:01:29;21.95;;;11.95;;
22622;SDS011;11478;51.094;7.030;2023-09-30T09:03:57;19.95;;;12.05;;
22622;SDS011;11478;51.094;7.030;2023-09-30T09:08:52;23.90;;;12.25;;
22622;SDS011;11478;51.094;7.030;2023-09-30T09:11:20;20.60;;;11.63;;
22622;SDS011;11478;51.094;7.030;2023-09-30T09:13:54;25.15;;;12.68;;
22622;SDS011;11478;51.094;7.030;2023-09-30T09:16:24;16.35;;;10.35;;
22622;SDS011;11478;51.094;7.030;2023-09-30T09:18:50;23.65;;;10.32;;
22622;SDS011;11478;51.094;7.030;2023-09-30T09:21:17;19.10;;;9.50;;
22622;SDS011;11478;51.094;7.030;2023-09-30T09:23:46;18.85;;;8.80;;
22622;SDS011;11478;51.094;7.030;2023-09-30T09:28:57;15.68;;;7.43;;
22622;SDS011;11478;51.094;7.030;2023-09-30T09:31:28;16.10;;;6.18;;
22622;SDS011;11478;51.094;7.030;2023-09-30T09:33:57;16.33;;;6.97;;
22622;SDS011;11478;51.094;7.030;2023-09-30T09:36:37;14.95;;;7.00;;
22622;SDS011;11478;51.094;7.030;2023-09-30T09:39:06;11.10;;;6.28;;
22622;SDS011;11478;51.094;7.030;2023-09-30T09:41:32;13.90;;;6.35;;
22622;SDS011;11478;51.094;7.030;2023-09-30T09:44:13;18.42;;;6.93;;
22622;SDS011;11478;51.094;7.030;2023-09-30T09:46:42;13.45;;;5.38;;
22622;SDS011;11478;51.094;7.030;2023-09-30T09:49:09;14.55;;;5.90;;
22622;SDS011;11478;51.094;7.030;2023-09-30T09:51:36;17.08;;;5.72;;
22622;SDS011;11478;51.094;7.030;2023-09-30T09:54:03;13.73;;;5.38;;
22622;SDS011;11478;51.094;7.030;2023-09-30T09:56:34;12.50;;;4.80;;
22622;SDS011;11478;51.094;7.030;2023-09-30T09:59:01;14.32;;;5.03;;
22622;SDS011;11478;51.094;7.030;2023-09-30T10:01:30;13.38;;;5.30;;
22622;SDS011;11478;51.094;7.030;2023-09-30T10:03:58;16.40;;;5.03;;
22622;SDS011;11478;51.094;7.030;2023-09-30T10:06:24;12.98;;;4.63;;
22622;SDS011;11478;51.094;7.030;2023-09-30T10:08:50;15.82;;;4.28;;
22622;SDS011;11478;51.094;7.030;2023-09-30T10:11:17;12.15;;;4.18;;
22622;SDS011;11478;51.094;7.030;2023-09-30T10:19:11;14.20;;;4.13;;
22622;SDS011;11478;51.094;7.030;2023-09-30T10:21:38;13.70;;;4.70;;
22622;SDS011;11478;51.094;7.030;2023-09-30T10:29:56;10.38;;;4.90;;
22622;SDS011;11478;51.094;7.030;2023-09-30T10:40:51;10.00;;;4.38;;
22622;SDS011;11478;51.094;7.030;2023-09-30T10:46:00;9.07;;;4.82;;
22622;SDS011;11478;51.094;7.030;2023-09-30T10:48:54;13.07;;;6.03;;
22622;SDS011;11478;51.094;7.030;2023-09-30T10:51:21;13.60;;;6.10;;
22622;SDS011;11478;51.094;7.030;2023-09-30T10:53:54;9.70;;;4.32;;
22622;SDS011;11478;51.094;7.030;2023-09-30T10:56:31;14.32;;;5.75;;
22622;SDS011;11478;51.094;7.030;2023-09-30T10:58:58;9.25;;;4.60;;
22622;SDS011;11478;51.094;7.030;2023-09-30T11:01:25;10.93;;;4.85;;
22622;SDS011;11478;51.094;7.030;2023-09-30T11:03:59;8.35;;;4.72;;
22622;SDS011;11478;51.094;7.030;2023-09-30T11:06:31;8.82;;;4.40;;
22622;SDS011;11478;51.094;7.030;2023-09-30T11:08:57;10.02;;;4.68;;
22622;SDS011;11478;51.094;7.030;2023-09-30T11:11:47;7.05;;;3.55;;
22622;SDS011;11478;51.094;7.030;2023-09-30T11:16:51;10.97;;;4.47;;
22622;SDS011;11478;51.094;7.030;2023-09-30T11:19:19;6.97;;;4.00;;
22622;SDS011;11478;51.094;7.030;2023-09-30T11:21:56;10.18;;;3.83;;
22622;SDS011;11478;51.094;7.030;2023-09-30T11:24:25;10.77;;;4.00;;
22622;SDS011;11478;51.094;7.030;2023-09-30T11:26:54;9.48;;;4.00;;
22622;SDS011;11478;51.094;7.030;2023-09-30T11:29:21;8.75;;;4.53;;
22622;SDS011;11478;51.094;7.030;2023-09-30T11:31:47;9.82;;;4.30;;
22622;SDS011;11478;51.094;7.030;2023-09-30T11:34:15;8.48;;;4.40;;
22622;SDS011;11478;51.094;7.030;2023-09-30T11:36:48;10.02;;;4.35;;
22622;SDS011;11478;51.094;7.030;2023-09-30T11:41:56;9.95;;;4.40;;
22622;SDS011;11478;51.094;7.030;2023-09-30T11:44:24;11.63;;;4.72;;
22622;SDS011;11478;51.094;7.030;2023-09-30T11:47:02;10.88;;;4.88;;
22622;SDS011;11478;51.094;7.030;2023-09-30T11:49:36;7.40;;;4.43;;
22622;SDS011;11478;51.094;7.030;2023-09-30T11:52:12;8.32;;;3.90;;
22622;SDS011;11478;51.094;7.030;2023-09-30T11:54:43;8.25;;;4.15;;
22622;SDS011;11478;51.094;7.030;2023-09-30T11:57:18;9.52;;;4.70;;
22622;SDS011;11478;51.094;7.030;2023-09-30T11:59:52;14.70;;;5.47;;
22622;SDS011;11478;51.094;7.030;2023-09-30T12:02:21;10.82;;;4.22;;
22622;SDS011;11478;51.094;7.030;2023-09-30T12:04:47;9.50;;;4.13;;
22622;SDS011;11478;51.094;7.030;2023-09-30T12:07:18;8.23;;;3.75;;
22622;SDS011;11478;51.094;7.030;2023-09-30T12:09:43;11.00;;;5.35;;
22622;SDS011;11478;51.094;7.030;2023-09-30T12:12:09;7.85;;;4.35;;
22622;SDS011;11478;51.094;7.030;2023-09-30T12:14:36;9.75;;;4.57;;
22622;SDS011;11478;51.094;7.030;2023-09-30T12:17:02;12.85;;;4.63;;
22622;SDS011;11478;51.094;7.030;2023-09-30T12:19:32;9.98;;;4.72;;
22622;SDS011;11478;51.094;7.030;2023-09-30T12:22:08;7.82;;;3.63;;
22622;SDS011;11478;51.094;7.030;2023-09-30T12:27:33;9.05;;;3.95;;
22622;SDS011;11478;51.094;7.030;2023-09-30T12:29:59;11.70;;;4.55;;
22622;SDS011;11478;51.094;7.030;2023-09-30T12:32:26;10.18;;;4.40;;
22622;SDS011;11478;51.094;7.030;2023-09-30T12:34:55;8.18;;;3.63;;
22622;SDS011;11478;51.094;7.030;2023-09-30T12:37:21;7.30;;;3.55;;
22622;SDS011;11478;51.094;7.030;2023-09-30T12:39:47;9.25;;;3.90;;
22622;SDS011;11478;51.094;7.030;2023-09-30T12:42:13;6.93;;;3.47;;
22622;SDS011;11478;51.094;7.030;2023-09-30T12:44:39;7.30;;;3.30;;
22622;SDS011;11478;51.094;7.030;2023-09-30T12:47:05;10.88;;;4.22;;
22622;SDS011;11478;51.094;7.030;2023-09-30T12:49:31;7.20;;;3.90;;
22622;SDS011;11478;51.094;7.030;2023-09-30T12:51:57;7.38;;;3.45;;
22622;SDS011;11478;51.094;7.030;2023-09-30T12:54:24;8.80;;;3.00;;
22622;SDS011;11478;51.094;7.030;2023-09-30T12:56:51;8.50;;;3.50;;
22622;SDS011;11478;51.094;7.030;2023-09-30T12:59:17;7.30;;;3.55;;
22622;SDS011;11478;51.094;7.030;2023-09-30T13:01:45;8.63;;;3.22;;
22622;SDS011;11478;51.094;7.030;2023-09-30T13:04:11;9.43;;;4.13;;
22622;SDS011;11478;51.094;7.030;2023-09-30T13:06:38;11.60;;;4.93;;
22622;SDS011;11478;51.094;7.030;2023-09-30T13:09:05;9.65;;;3.85;;
22622;SDS011;11478;51.094;7.030;2023-09-30T13:11:33;9.43;;;3.58;;
22622;SDS011;11478;51.094;7.030;2023-09-30T13:13:59;7.28;;;3.17;;
22622;SDS011;11478;51.094;7.030;2023-09-30T13:16:25;9.48;;;3.90;;
22622;SDS011;11478;51.094;7.030;2023-09-30T13:18:51;9.88;;;3.58;;
22622;SDS011;11478;51.094;7.030;2023-09-30T13:21:17;10.48;;;3.75;;
22622;SDS011;11478;51.094;7.030;2023-09-30T13:23:43;6.82;;;3.20;;
22622;SDS011;11478;51.094;7.030;2023-09-30T13:26:11;7.85;;;2.70;;
22622;SDS011;11478;51.094;7.030;2023-09-30T13:28:37;7.70;;;3.22;;
22622;SDS011;11478;51.094;7.030;2023-09-30T13:31:07;9.57;;;3.25;;
22622;SDS011;11478;51.094;7.030;2023-09-30T13:33:33;9.95;;;3.10;;
22622;SDS011;11478;51.094;7.030;2023-09-30T13:38:28;8.18;;;2.97;;
22622;SDS011;11478;51.094;7.030;2023-09-30T13:43:23;9.05;;;2.70;;
22622;SDS011;11478;51.094;7.030;2023-09-30T13:45:52;8.13;;;3.78;;
22622;SDS011;11478;51.094;7.030;2023-09-30T13:48:17;6.80;;;3.10;;
22622;SDS011;11478;51.094;7.030;2023-09-30T13:50:43;7.53;;;3.08;;
22622;SDS011;11478;51.094;7.030;2023-09-30T13:53:09;6.97;;;3.33;;
22622;SDS011;11478;51.094;7.030;2023-09-30T13:55:38;5.97;;;2.90;;
22622;SDS011;11478;51.094;7.030;2023-09-30T13:58:04;5.40;;;2.90;;
22622;SDS011;11478;51.094;7.030;2023-09-30T14:00:30;7.78;;;3.00;;
22622;SDS011;11478;51.094;7.030;2023-09-30T14:02:59;8.75;;;3.42;;
22622;SDS011;11478;51.094;7.030;2023-09-30T14:05:25;7.35;;;3.42;;
22622;SDS011;11478;51.094;7.030;2023-09-30T14:07:51;6.97;;;3.05;;
22622;SDS011;11478;51.094;7.030;2023-09-30T14:10:17;9.93;;;3.38;;
22622;SDS011;11478;51.094;7.030;2023-09-30T14:12:44;7.40;;;3.15;;
22622;SDS011;11478;51.094;7.030;2023-09-30T14:15:10;6.60;;;2.85;;
22622;SDS011;11478;51.094;7.030;2023-09-30T14:17:36;9.63;;;2.55;;
22622;SDS011;11478;51.094;7.030;2023-09-30T14:20:02;6.38;;;2.40;;
22622;SDS011;11478;51.094;7.030;2023-09-30T14:22:30;6.90;;;2.85;;
22622;SDS011;11478;51.094;7.030;2023-09-30T14:24:56;5.82;;;2.83;;
22622;SDS011;11478;51.094;7.030;2023-09-30T14:27:23;6.43;;;2.70;;
22622;SDS011;11478;51.094;7.030;2023-09-30T14:29:51;6.22;;;2.88;;
22622;SDS011;11478;51.094;7.030;2023-09-30T14:32:21;5.00;;;2.25;;
22622;SDS011;11478;51.094;7.030;2023-09-30T14:34:48;6.13;;;2.58;;
22622;SDS011;11478;51.094;7.030;2023-09-30T14:37:19;9.15;;;2.90;;
22622;SDS011;11478;51.094;7.030;2023-09-30T14:39:45;6.70;;;2.90;;
22622;SDS011;11478;51.094;7.030;2023-09-30T14:42:12;6.53;;;3.00;;
22622;SDS011;11478;51.094;7.030;2023-09-30T14:44:37;5.65;;;2.80;;
22622;SDS011;11478;51.094;7.030;2023-09-30T14:47:03;5.68;;;2.65;;
22622;SDS011;11478;51.094;7.030;2023-09-30T14:49:30;6.47;;;2.88;;
22622;SDS011;11478;51.094;7.030;2023-09-30T14:51:59;5.15;;;2.83;;
22622;SDS011;11478;51.094;7.030;2023-09-30T14:54:25;8.50;;;3.10;;
22622;SDS011;11478;51.094;7.030;2023-09-30T14:56:56;6.28;;;2.63;;
22622;SDS011;11478;51.094;7.030;2023-09-30T14:59:24;6.60;;;2.90;;
22622;SDS011;11478;51.094;7.030;2023-09-30T15:01:50;5.30;;;2.72;;
22622;SDS011;11478;51.094;7.030;2023-09-30T15:04:18;9.30;;;2.97;;
22622;SDS011;11478;51.094;7.030;2023-09-30T15:06:44;5.97;;;2.78;;
22622;SDS011;11478;51.094;7.030;2023-09-30T15:09:11;6.75;;;2.60;;
22622;SDS011;11478;51.094;7.030;2023-09-30T15:11:40;9.90;;;3.67;;
22622;SDS011;11478;51.094;7.030;2023-09-30T15:14:06;6.82;;;3.25;;
22622;SDS011;11478;51.094;7.030;2023-09-30T15:16:32;8.25;;;3.03;;
22622;SDS011;11478;51.094;7.030;2023-09-30T15:18:58;12.05;;;6.30;;
22622;SDS011;11478;51.094;7.030;2023-09-30T15:21:24;12.35;;;7.13;;
22622;SDS011;11478;51.094;7.030;2023-09-30T15:23:50;14.20;;;8.07;;
22622;SDS011;11478;51.094;7.030;2023-09-30T15:26:16;9.27;;;4.45;;
22622;SDS011;11478;51.094;7.030;2023-09-30T15:28:50;18.95;;;11.85;;
22622;SDS011;11478;51.094;7.030;2023-09-30T15:31:16;12.35;;;6.93;;
22622;SDS011;11478;51.094;7.030;2023-09-30T15:34:00;11.70;;;7.23;;
22622;SDS011;11478;51.094;7.030;2023-09-30T15:36:27;8.82;;;6.32;;
22622;SDS011;11478;51.094;7.030;2023-09-30T15:38:53;8.48;;;6.00;;
22622;SDS011;11478;51.094;7.030;2023-09-30T15:41:22;8.55;;;4.65;;
22622;SDS011;11478;51.094;7.030;2023-09-30T15:43:56;11.05;;;4.00;;
22622;SDS011;11478;51.094;7.030;2023-09-30T15:46:38;7.28;;;3.13;;
22622;SDS011;11478;51.094;7.030;2023-09-30T15:49:04;6.45;;;2.80;;
22622;SDS011;11478;51.094;7.030;2023-09-30T15:51:30;4.63;;;2.60;;
22622;SDS011;11478;51.094;7.030;2023-09-30T15:53:59;6.65;;;3.10;;
22622;SDS011;11478;51.094;7.030;2023-09-30T15:56:36;7.38;;;2.88;;
22622;SDS011;11478;51.094;7.030;2023-09-30T15:59:04;8.77;;;2.80;;
22622;SDS011;11478;51.094;7.030;2023-09-30T16:04:04;5.78;;;2.90;;
22622;SDS011;11478;51.094;7.030;2023-09-30T16:06:30;6.70;;;3.08;;
22622;SDS011;11478;51.094;7.030;2023-09-30T16:08:56;7.82;;;2.67;;
22622;SDS011;11478;51.094;7.030;2023-09-30T16:11:23;6.60;;;2.47;;
22622;SDS011;11478;51.094;7.030;2023-09-30T16:13:49;4.63;;;2.60;;
22622;SDS011;11478;51.094;7.030;2023-09-30T16:16:16;5.43;;;2.92;;
22622;SDS011;11478;51.094;7.030;2023-09-30T16:18:43;5.85;;;2.85;;
22622;SDS011;11478;51.094;7.030;2023-09-30T16:21:08;5.63;;;2.72;;
22622;SDS011;11478;51.094;7.030;2023-09-30T16:23:38;5.15;;;2.88;;
22622;SDS011;11478;51.094;7.030;2023-09-30T16:26:04;6.45;;;3.05;;
22622;SDS011;11478;51.094;7.030;2023-09-30T16:28:30;12.93;;;3.10;;
22622;SDS011;11478;51.094;7.030;2023-09-30T16:30:59;3.95;;;2.30;;
22622;SDS011;11478;51.094;7.030;2023-09-30T16:33:25;5.00;;;2.85;;
22622;SDS011;11478;51.094;7.030;2023-09-30T16:35:52;4.55;;;2.85;;
22622;SDS011;11478;51.094;7.030;2023-09-30T16:38:18;5.03;;;3.08;;
22622;SDS011;11478;51.094;7.030;2023-09-30T16:40:52;7.70;;;3.15;;
22622;SDS011;11478;51.094;7.030;2023-09-30T16:43:18;5.75;;;3.17;;
22622;SDS011;11478;51.094;7.030;2023-09-30T16:45:45;8.32;;;3.55;;
22622;SDS011;11478;51.094;7.030;2023-09-30T16:48:20;13.07;;;4.28;;